createdAt,value
2018-07-28T00:03:13.502Z,5.53
2018-07-28T00:08:16.775Z,5.40
2018-07-28T00:13:19.950Z,5.50
2018-07-28T00:18:23.115Z,5.63
2018-07-28T00:23:26.309Z,6.07
2018-07-28T00:28:29.528Z,5.50
2018-07-28T00:33:35.227Z,5.60
2018-07-28T00:38:38.406Z,5.63
2018-07-28T00:43:44.122Z,6.03
2018-07-28T00:48:47.349Z,5.77
2018-07-28T00:53:50.637Z,5.90
2018-07-28T00:58:54.046Z,5.87
2018-07-28T01:03:57.358Z,5.80
2018-07-28T01:09:00.545Z,5.50
2018-07-28T01:14:04.751Z,5.67
2018-07-28T01:19:07.944Z,6.27
2018-07-28T01:24:11.153Z,6.70
2018-07-28T01:29:18.264Z,6.30
2018-07-28T01:34:21.471Z,6.90
2018-07-28T01:39:24.642Z,6.57
2018-07-28T01:44:27.831Z,6.10
2018-07-28T01:49:31.127Z,6.20
2018-07-28T01:54:34.309Z,5.60
2018-07-28T01:59:37.566Z,5.87
2018-07-28T02:04:40.734Z,5.43
2018-07-28T02:09:43.953Z,4.93
2018-07-28T02:14:47.152Z,5.43
2018-07-28T02:19:50.434Z,5.67
2018-07-28T02:24:53.961Z,5.53
2018-07-28T02:29:57.163Z,5.20
2018-07-28T02:35:00.394Z,5.67
2018-07-28T02:40:03.583Z,6.40
2018-07-28T02:45:06.722Z,8.17
2018-07-28T02:50:09.918Z,8.80
2018-07-28T02:55:13.089Z,7.87
2018-07-28T03:00:16.904Z,7.33
2018-07-28T03:05:20.037Z,8.60
2018-07-28T03:10:23.213Z,9.03
2018-07-28T03:15:35.070Z,8.17
2018-07-28T03:20:38.246Z,8.20
2018-07-28T03:25:41.413Z,7.87
2018-07-28T03:30:44.603Z,7.70
2018-07-28T03:35:48.758Z,8.40
2018-07-28T03:40:51.977Z,8.87
2018-07-28T03:45:55.207Z,8.60
2018-07-28T03:50:58.392Z,7.53
2018-07-28T03:56:01.537Z,7.27
2018-07-28T04:01:04.745Z,6.40
2018-07-28T04:06:07.905Z,6.60
2018-07-28T04:11:11.097Z,6.27
2018-07-28T04:16:14.715Z,5.57
2018-07-28T04:21:17.872Z,6.90
2018-07-28T04:26:21.029Z,6.10
2018-07-28T04:31:24.218Z,6.67
2018-07-28T04:36:27.378Z,6.97
2018-07-28T04:41:30.621Z,6.57
2018-07-28T04:46:33.912Z,7.27
2018-07-28T04:51:37.723Z,7.47
2018-07-28T04:56:40.929Z,7.47
2018-07-28T05:01:44.130Z,6.60
2018-07-28T05:06:47.297Z,6.73
2018-07-28T05:11:50.485Z,7.30
2018-07-28T05:16:53.700Z,6.33
2018-07-28T05:21:56.886Z,6.57
2018-07-28T05:27:00.135Z,6.93
2018-07-28T05:32:03.322Z,7.60
2018-07-28T05:37:06.568Z,6.60
2018-07-28T05:42:10.764Z,7.67
2018-07-28T05:47:14.050Z,6.83
2018-07-28T05:52:17.297Z,7.63
2018-07-28T05:57:20.276Z,7.20
2018-07-28T06:02:23.510Z,6.90
2018-07-28T06:07:26.766Z,7.30
2018-07-28T06:12:30.111Z,6.90
2018-07-28T06:17:33.323Z,6.93
2018-07-28T06:22:36.934Z,7.20
2018-07-28T06:27:40.313Z,6.93
2018-07-28T06:32:43.576Z,7.33
2018-07-28T06:37:46.728Z,7.87
2018-07-28T06:42:50.024Z,6.70
2018-07-28T06:47:53.232Z,7.53
2018-07-28T06:52:56.409Z,7.03
2018-07-28T06:57:59.606Z,6.73
2018-07-28T07:03:03.234Z,6.93
2018-07-28T07:08:06.881Z,7.90
2018-07-28T07:13:10.088Z,7.23
2018-07-28T07:18:13.304Z,7.00
2018-07-28T07:23:16.521Z,6.63
2018-07-28T07:28:20.866Z,6.93
2018-07-28T07:33:24.261Z,6.20
2018-07-28T07:38:28.480Z,6.53
2018-07-28T07:43:31.686Z,6.53
2018-07-28T07:48:35.289Z,8.03
2018-07-28T07:53:38.585Z,10.63
2018-07-28T07:58:41.767Z,11.10
2018-07-28T08:03:45.050Z,11.63
2018-07-28T08:08:48.274Z,11.73
2018-07-28T08:13:51.409Z,11.53
2018-07-28T08:18:54.686Z,12.80
2018-07-28T08:23:57.897Z,11.67
2018-07-28T08:29:02.157Z,11.43
2018-07-28T08:34:05.544Z,12.03
2018-07-28T08:39:11.194Z,12.53
2018-07-28T08:44:16.542Z,11.70
2018-07-28T08:49:21.005Z,11.50
2018-07-28T08:54:24.382Z,12.50
2018-07-28T08:59:28.074Z,12.10
2018-07-28T09:04:33.538Z,10.43
2018-07-28T09:09:36.821Z,11.60
2018-07-28T09:14:40.075Z,12.20
2018-07-28T09:19:43.336Z,14.20
2018-07-28T09:24:46.497Z,14.53
2018-07-28T09:29:50.843Z,12.57
2018-07-28T09:34:54.169Z,13.73
2018-07-28T09:39:57.505Z,13.73
2018-07-28T09:45:00.782Z,15.13
2018-07-28T09:50:04.492Z,13.87
2018-07-28T09:55:08.671Z,13.03
2018-07-28T10:00:14.113Z,13.23
2018-07-28T10:05:17.345Z,11.30
2018-07-28T10:10:21.997Z,11.47
2018-07-28T10:15:25.905Z,11.70
2018-07-28T10:20:32.856Z,13.23
2018-07-28T10:25:38.255Z,12.33
2018-07-28T10:30:44.920Z,12.50
2018-07-28T10:35:48.245Z,13.17
2018-07-28T10:40:51.986Z,12.33
2018-07-28T10:45:55.209Z,12.53
2018-07-28T10:50:58.429Z,12.17
2018-07-28T10:56:01.645Z,13.30
2018-07-28T11:01:04.834Z,13.03
2018-07-28T11:06:08.755Z,13.07
2018-07-28T11:11:11.992Z,13.43
2018-07-28T11:16:16.245Z,14.13
2018-07-28T11:21:19.501Z,12.60
2018-07-28T11:26:23.800Z,11.83
2018-07-28T11:31:38.517Z,10.63
2018-07-28T11:36:54.280Z,11.20
2018-07-28T11:42:12.600Z,10.93
2018-07-28T11:47:15.772Z,10.57
2018-07-28T11:52:19.070Z,10.03
2018-07-28T11:57:23.578Z,8.63
2018-07-28T12:02:28.085Z,9.30
2018-07-28T12:07:31.342Z,8.83
2018-07-28T12:12:34.759Z,8.30
2018-07-28T12:17:38.985Z,6.80
2018-07-28T12:22:42.200Z,6.87
2018-07-28T12:27:45.426Z,5.93
2018-07-28T12:32:48.656Z,4.13
2018-07-28T12:37:51.978Z,4.47
2018-07-28T12:43:01.813Z,4.30
2018-07-28T12:48:07.894Z,3.97
2018-07-28T12:53:15.514Z,4.33
2018-07-28T12:58:20.019Z,4.67
2018-07-28T13:03:23.251Z,4.73
2018-07-28T13:08:26.969Z,4.40
2018-07-28T13:13:30.170Z,4.43
2018-07-28T13:18:33.389Z,4.63
2018-07-28T13:23:37.765Z,4.70
2018-07-28T13:28:41.066Z,4.70
2018-07-28T13:33:44.731Z,4.73
2018-07-28T13:38:50.990Z,5.30
2018-07-28T13:43:54.206Z,4.70
2018-07-28T13:48:57.461Z,6.07
2018-07-28T13:54:00.861Z,6.27
2018-07-28T13:59:05.372Z,5.57
2018-07-28T14:04:08.638Z,6.27
2018-07-28T14:09:11.918Z,6.27
2018-07-28T14:14:15.141Z,6.07
2018-07-28T14:19:18.330Z,5.53
2018-07-28T14:24:22.598Z,6.00
2018-07-28T14:29:25.885Z,6.17
2018-07-28T14:34:29.354Z,5.93
2018-07-28T14:39:32.786Z,5.03
2018-07-28T14:44:36.042Z,5.50
2018-07-28T14:49:39.235Z,4.43
2018-07-28T14:54:43.829Z,4.70
2018-07-28T14:59:47.105Z,3.97
2018-07-28T15:04:50.297Z,4.70
2018-07-28T15:09:55.001Z,5.00
2018-07-28T15:14:59.264Z,4.13
2018-07-28T15:20:02.724Z,4.60
2018-07-28T15:25:09.494Z,4.30
2018-07-28T15:30:12.674Z,4.23
2018-07-28T15:35:15.911Z,4.60
2018-07-28T15:40:20.142Z,3.97
2018-07-28T15:45:23.334Z,4.27
2018-07-28T15:50:26.549Z,4.50
2018-07-28T15:55:29.786Z,4.30
2018-07-28T16:00:32.970Z,4.30
2018-07-28T16:05:36.216Z,4.10
2018-07-28T16:10:39.382Z,4.23
2018-07-28T16:15:42.997Z,4.50
2018-07-28T16:20:46.230Z,4.60
2018-07-28T16:25:49.517Z,4.80
2018-07-28T16:30:53.253Z,6.07
2018-07-28T16:35:56.490Z,5.87
2018-07-28T16:41:00.333Z,6.87
2018-07-28T16:46:03.649Z,6.53
2018-07-28T16:51:08.603Z,7.23
2018-07-28T16:56:12.149Z,7.17
2018-07-28T17:01:15.441Z,7.40
2018-07-28T17:06:19.758Z,6.70
2018-07-28T17:11:25.169Z,7.03
2018-07-28T17:16:28.357Z,7.00
2018-07-28T17:21:31.614Z,7.10
2018-07-28T17:26:42.278Z,7.30
2018-07-28T17:31:45.549Z,6.77
2018-07-28T17:36:48.849Z,8.00
2018-07-28T17:41:52.125Z,7.97
2018-07-28T17:46:55.450Z,8.00
2018-07-28T17:51:59.721Z,10.00
2018-07-28T17:57:03.895Z,11.03
2018-07-28T18:02:07.146Z,11.90
2018-07-28T18:07:11.205Z,12.10
2018-07-28T18:12:14.486Z,15.13
2018-07-28T18:17:18.710Z,14.70
2018-07-28T18:22:22.918Z,13.20
2018-07-28T18:27:26.165Z,14.73
2018-07-28T18:32:29.348Z,15.20
2018-07-28T18:37:32.593Z,16.00
2018-07-28T18:42:36.898Z,16.60
2018-07-28T18:47:40.113Z,15.20
2018-07-28T18:52:43.294Z,14.57
2018-07-28T18:57:46.512Z,15.07
2018-07-28T19:02:50.703Z,15.47
2018-07-28T19:07:54.637Z,16.43
2018-07-28T19:13:03.289Z,15.83
2018-07-28T19:18:12.043Z,15.73
2018-07-28T19:23:20.646Z,17.27
2018-07-28T19:28:36.723Z,18.03
2018-07-28T19:33:40.810Z,18.33
2018-07-28T19:38:45.376Z,19.63
2018-07-28T19:43:52.297Z,19.43
2018-07-28T19:48:57.581Z,20.67
2018-07-28T19:54:00.791Z,18.60
2018-07-28T19:59:04.172Z,19.73
2018-07-28T20:04:07.393Z,19.77
2018-07-28T20:09:12.281Z,19.03
2018-07-28T20:14:15.645Z,20.67
2018-07-28T20:19:19.132Z,23.67
2018-07-28T20:24:23.393Z,21.13
2018-07-28T20:29:27.477Z,19.30
2018-07-28T20:34:31.418Z,22.43
2018-07-28T20:39:34.778Z,21.13
2018-07-28T20:44:40.113Z,21.13
2018-07-28T20:49:44.370Z,21.73
2018-07-28T20:54:47.793Z,20.50
2018-07-28T20:59:51.152Z,20.93
2018-07-28T21:04:54.593Z,21.17
2018-07-28T21:09:57.835Z,21.20
2018-07-28T21:15:01.157Z,20.90
2018-07-28T21:20:04.720Z,22.17
2018-07-28T21:25:07.997Z,21.47
2018-07-28T21:30:11.182Z,20.87
2018-07-28T21:35:14.349Z,21.43
2018-07-28T21:40:17.527Z,22.70
2018-07-28T21:45:20.758Z,23.47
2018-07-28T21:50:24.211Z,23.70
2018-07-28T21:55:27.686Z,22.27
2018-07-28T22:01:38.933Z,22.43
2018-07-28T22:06:43.194Z,22.07
2018-07-28T22:11:46.442Z,17.97
2018-07-28T22:16:49.689Z,18.40
2018-07-28T22:21:54.401Z,18.83
2018-07-28T22:26:59.565Z,17.13
2018-07-28T22:32:05.433Z,17.37
2018-07-28T22:37:08.713Z,16.93
2018-07-28T22:42:13.658Z,17.77
2018-07-28T22:47:16.834Z,17.37
2018-07-28T22:52:22.849Z,17.37
2018-07-28T22:57:29.524Z,15.63
2018-07-28T23:02:33.217Z,15.03
2018-07-28T23:07:36.413Z,14.57
2018-07-28T23:12:41.294Z,13.90
2018-07-28T23:17:44.617Z,14.10
2018-07-28T23:22:48.877Z,14.03
2018-07-28T23:27:52.110Z,15.10
2018-07-28T23:32:55.258Z,15.10
2018-07-28T23:37:58.465Z,15.37
2018-07-28T23:43:01.690Z,15.23
2018-07-28T23:48:04.973Z,15.43
2018-07-28T23:53:08.174Z,15.77
2018-07-28T23:58:12.438Z,17.57
